Time;durP1;ratioP1;P1;durP2;ratioP2;P2;SDS_P1;SDS_P2;PMS_P1;PMS_P2;Temp;Humidity;BMP_temperature;BMP_pressure;BME280_temperature;BME280_humidity;BME280_pressure;Samples;Min_cycle;Max_cycle;Signal;HPM_P1;HPM_P2
2022/09/01 00:00:52;;;;;;;4.57;2.10;;;;;;;18.87;47.52;101979.44;5049389;28;20063;-62
2022/09/01 00:03:22;;;;;;;4.60;2.00;;;;;;;18.85;47.70;101977.63;5049886;28;20064;-61
2022/09/01 00:05:48;;;;;;;6.18;2.15;;;;;;;18.77;47.96;101975.81;5046602;28;20480;-60
2022/09/01 00:08:14;;;;;;;4.00;2.08;;;;;;;18.75;48.30;101974.91;5050628;28;20029;-63
2022/09/01 00:10:40;;;;;;;5.20;2.40;;;;;;;18.75;48.53;101974.03;5046733;28;20025;-61
2022/09/01 00:13:06;;;;;;;5.15;2.20;;;;;;;18.70;48.61;101966.06;5044226;28;20032;-62
2022/09/01 00:15:33;;;;;;;5.05;2.33;;;;;;;18.70;48.74;101970.47;5048275;28;20063;-62
2022/09/01 00:17:59;;;;;;;5.53;2.15;;;;;;;18.69;49.07;101971.34;5046062;28;20033;-61
2022/09/01 00:20:25;;;;;;;4.15;2.10;;;;;;;18.67;49.43;101970.44;5046616;28;20047;-62
2022/09/01 00:22:50;;;;;;;5.07;2.20;;;;;;;18.63;49.46;101963.38;5048904;28;20111;-62
2022/09/01 00:25:18;;;;;;;3.78;2.25;;;;;;;18.60;49.86;101970.38;5049543;28;20036;-62
2022/09/01 00:27:45;;;;;;;3.67;2.20;;;;;;;18.58;49.98;101966.88;5047905;28;20044;-62
2022/09/01 00:30:10;;;;;;;5.53;2.40;;;;;;;18.54;50.23;101970.34;5049508;28;20021;-62
2022/09/01 00:32:36;;;;;;;4.97;2.90;;;;;;;18.56;50.02;101973.00;5050769;28;20025;-61
2022/09/01 00:35:01;;;;;;;6.15;2.70;;;;;;;18.52;50.03;101973.84;5045949;28;20056;-61
2022/09/01 00:37:26;;;;;;;5.38;2.58;;;;;;;18.47;50.29;101973.81;5049197;28;20053;-62
2022/09/01 00:39:52;;;;;;;4.18;2.20;;;;;;;18.47;50.62;101965.00;5041822;28;20595;-61
2022/09/01 00:42:17;;;;;;;4.95;2.90;;;;;;;18.44;50.96;101971.13;5045247;28;20049;-61
2022/09/01 00:44:43;;;;;;;5.70;2.80;;;;;;;18.42;50.77;101970.22;5046522;28;20149;-61
2022/09/01 00:47:08;;;;;;;4.47;3.00;;;;;;;18.39;50.93;101970.19;5037934;28;20067;-61
2022/09/01 00:49:37;;;;;;;4.75;3.08;;;;;;;18.35;51.22;101971.03;5038905;28;20025;-61
2022/09/01 00:52:08;;;;;;;6.63;2.63;;;;;;;18.29;51.77;101968.34;5044799;28;20484;-61
2022/09/01 00:54:39;;;;;;;5.45;2.72;;;;;;;18.29;51.38;101971.84;5047203;28;20029;-61
2022/09/01 00:57:06;;;;;;;5.45;2.92;;;;;;;18.26;51.92;101971.81;5046338;28;20531;-61
2022/09/01 00:59:32;;;;;;;4.47;2.35;;;;;;;18.26;51.59;101969.19;5044462;28;20036;-61
2022/09/01 01:01:58;;;;;;;4.53;2.33;;;;;;;18.21;52.33;101965.63;5048260;28;20158;-61
2022/09/01 01:04:23;;;;;;;4.65;2.58;;;;;;;18.18;52.26;101955.94;5047230;28;20071;-61
2022/09/01 01:06:57;;;;;;;6.95;3.42;;;;;;;18.14;52.73;101963.81;5047350;28;20492;-61
2022/09/01 01:09:24;;;;;;;5.97;2.97;;;;;;;18.11;52.67;101963.78;5048147;28;20112;-61
2022/09/01 01:11:51;;;;;;;5.03;2.67;;;;;;;18.08;52.44;101959.34;5040981;28;20399;-61
2022/09/01 01:14:16;;;;;;;4.93;2.65;;;;;;;18.06;52.78;101967.25;5045375;28;20032;-61
2022/09/01 01:16:44;;;;;;;5.13;3.00;;;;;;;18.04;53.01;101955.78;5044292;28;20021;-62
2022/09/01 01:25:13;;;;;;;5.30;3.30;;;;;;;17.94;52.75;101956.56;5042301;28;20083;-61
2022/09/01 01:27:41;;;;;;;4.70;3.05;;;;;;;17.92;53.19;101955.66;5044458;28;20041;-61
2022/09/01 01:30:09;;;;;;;5.88;3.80;;;;;;;17.86;53.63;101959.09;5042729;28;20496;-61
2022/09/01 01:32:36;;;;;;;5.68;3.75;;;;;;;17.84;53.77;101958.19;5044763;28;20017;-60
2022/09/01 01:35:04;;;;;;;5.25;3.30;;;;;;;17.80;53.21;101964.28;5048261;28;20051;-59
2022/09/01 01:37:33;;;;;;;4.97;3.47;;;;;;;17.80;53.36;101959.03;5045107;28;20124;-61
2022/09/01 01:39:58;;;;;;;6.00;4.03;;;;;;;17.73;53.69;101962.44;5044309;28;20291;-61
2022/09/01 01:42:25;;;;;;;6.88;3.80;;;;;;;17.70;53.41;101963.28;5045986;28;20048;-61
2022/09/01 01:44:51;;;;;;;5.68;4.05;;;;;;;17.68;54.04;101956.22;5046997;28;20037;-61
2022/09/01 01:47:16;;;;;;;7.13;3.53;;;;;;;17.66;53.93;101958.84;5047969;28;20106;-62
2022/09/01 01:49:42;;;;;;;5.78;3.70;;;;;;;17.63;54.15;101963.22;5046932;28;20389;-61
2022/09/01 01:52:11;;;;;;;5.88;4.18;;;;;;;17.58;54.77;101970.16;5046848;28;20033;-62
2022/09/01 01:54:37;;;;;;;;;;;;;;;17.65;53.10;101969.38;5048915;28;20028;-61
2022/09/01 01:57:03;;;;;;;5.50;3.10;;;;;;;17.53;54.69;101968.34;5046217;28;19917;-61
2022/09/01 01:59:29;;;;;;;5.85;3.47;;;;;;;17.50;54.39;101975.34;5047640;28;20025;-61
2022/09/01 02:01:55;;;;;;;4.75;3.10;;;;;;;17.44;54.88;101970.88;5045396;28;20025;-61
2022/09/01 02:04:21;;;;;;;6.97;3.38;;;;;;;17.40;54.85;101963.78;5049751;28;20443;-61
2022/09/01 02:06:48;;;;;;;5.40;3.72;;;;;;;17.35;55.27;101962.81;5046815;28;20123;-61
2022/09/01 02:09:17;;;;;;;6.00;3.42;;;;;;;17.33;55.15;101968.06;5047536;28;20025;-62
2022/09/01 02:11:44;;;;;;;4.25;2.75;;;;;;;17.30;55.75;101961.91;5042127;28;20117;-61
2022/09/01 02:14:12;;;;;;;5.80;3.55;;;;;;;17.28;55.52;101966.25;5042755;28;20025;-61
2022/09/01 02:16:38;;;;;;;4.00;2.90;;;;;;;17.24;55.97;101969.72;5044033;28;20074;-62
2022/09/01 02:19:07;;;;;;;6.70;3.50;;;;;;;17.20;56.11;101967.03;5048570;28;20052;-61
2022/09/01 02:21:33;;;;;;;;;;;;;;;17.28;54.45;101966.25;5044685;28;20526;-59
2022/09/01 02:24:04;;;;;;;5.75;3.20;;;;;;;17.19;56.22;101967.91;5049162;28;19987;-60
2022/09/01 02:26:37;;;;;;;5.82;2.78;;;;;;;17.13;55.88;101965.19;5041695;28;20041;-61
2022/09/01 02:29:05;;;;;;;7.10;3.22;;;;;;;17.08;56.40;101964.22;5046761;28;20087;-61
2022/09/01 02:31:34;;;;;;;6.50;3.80;;;;;;;17.06;56.55;101962.41;5046437;28;20033;-61
2022/09/01 02:34:00;;;;;;;6.30;3.92;;;;;;;17.02;56.58;101961.50;5046826;28;20059;-61
2022/09/01 02:36:25;;;;;;;5.65;3.63;;;;;;;17.01;56.61;101962.38;5047880;28;20165;-61
2022/09/01 02:38:52;;;;;;;5.28;3.42;;;;;;;16.97;56.68;101963.16;5050689;28;20032;-61
2022/09/01 02:41:20;;;;;;;5.20;3.40;;;;;;;16.95;56.80;101965.78;5044665;28;20037;-61
2022/09/01 02:43:46;;;;;;;6.43;4.05;;;;;;;16.92;56.46;101965.75;5048820;28;20049;-62
2022/09/01 02:46:13;;;;;;;5.72;3.63;;;;;;;16.90;56.71;101967.47;5050509;28;20052;-62
2022/09/01 02:48:41;;;;;;;6.90;3.90;;;;;;;16.89;56.74;101964.78;5049611;28;20610;-62
2022/09/01 02:51:15;;;;;;;5.60;3.67;;;;;;;16.86;56.49;101958.59;5052510;28;20053;-62
2022/09/01 02:53:42;;;;;;;7.05;4.65;;;;;;;16.84;56.67;101960.34;5046015;28;20029;-62
2022/09/01 02:56:12;;;;;;;7.32;3.78;;;;;;;16.80;57.37;101952.34;5047841;28;20037;-61
2022/09/01 02:58:44;;;;;;;8.80;4.53;;;;;;;16.78;56.91;101960.22;5045517;28;20028;-61
2022/09/01 03:01:13;;;;;;;6.28;3.75;;;;;;;16.74;56.72;101949.63;5047681;28;20025;-61
2022/09/01 03:03:39;;;;;;;;;;;;;;;16.82;55.37;101948.00;5047497;28;20083;-61
2022/09/01 03:06:06;;;;;;;8.60;4.57;;;;;;;16.76;56.60;101940.03;5043995;28;19913;-61
2022/09/01 03:08:35;;;;;;;7.22;3.97;;;;;;;16.68;57.52;101943.41;5048793;28;20098;-61
2022/09/01 03:11:02;;;;;;;5.85;3.78;;;;;;;16.67;57.14;101946.03;5046340;28;20163;-60
2022/09/01 03:13:28;;;;;;;5.53;4.25;;;;;;;16.63;57.53;101941.56;5050717;28;20036;-62
2022/09/01 03:15:53;;;;;;;5.00;3.88;;;;;;;16.59;57.46;101945.00;5050017;28;20074;-61
2022/09/01 03:18:19;;;;;;;6.82;4.05;;;;;;;16.56;57.55;101944.97;5045311;28;20037;-61
2022/09/01 03:20:45;;;;;;;6.15;4.03;;;;;;;16.56;57.16;101944.97;5049921;28;20074;-61
2022/09/01 03:23:14;;;;;;;6.90;4.28;;;;;;;16.49;57.75;101943.97;5049227;28;20114;-61
2022/09/01 03:25:42;;;;;;;6.78;4.65;;;;;;;16.49;57.12;101947.47;5049775;28;20028;-61
2022/09/01 03:28:08;;;;;;;8.57;4.10;;;;;;;16.46;57.00;101946.53;5047751;28;20036;-61
2022/09/01 03:30:38;;;;;;;6.22;4.70;;;;;;;16.43;57.50;101952.63;5049046;28;20050;-61
2022/09/01 03:33:05;;;;;;;9.18;4.63;;;;;;;16.41;57.45;101957.00;5050255;28;20025;-62
2022/09/01 03:35:30;;;;;;;6.78;4.32;;;;;;;16.37;57.71;101949.91;5045430;28;20480;-61
2022/09/01 03:37:58;;;;;;;6.22;4.50;;;;;;;16.33;58.13;101945.44;5049940;28;20044;-60
2022/09/01 03:40:31;;;;;;;7.65;4.53;;;;;;;16.31;58.09;101957.69;5043861;28;20024;-61
2022/09/01 03:42:59;;;;;;;5.13;4.10;;;;;;;16.29;58.10;101951.50;5043343;28;20598;-62
2022/09/01 03:45:25;;;;;;;7.93;4.82;;;;;;;16.28;57.97;101954.97;5046092;28;20033;-62
2022/09/01 03:47:53;;;;;;;6.97;4.00;;;;;;;16.21;58.38;101947.88;5051056;28;20032;-61
2022/09/01 03:50:21;;;;;;;7.82;4.85;;;;;;;16.19;58.31;101950.44;5048500;28;20389;-62
2022/09/01 03:52:48;;;;;;;7.38;4.47;;;;;;;16.17;58.33;101946.91;5048241;28;20029;-62
2022/09/01 03:55:22;;;;;;;7.85;5.28;;;;;;;16.14;58.11;101954.75;5044035;28;20036;-61
2022/09/01 03:57:51;;;;;;;7.28;5.10;;;;;;;16.11;58.46;101949.44;5043048;28;20070;-61
2022/09/01 04:00:21;;;;;;;7.07;4.38;;;;;;;16.08;59.19;101944.13;5045895;28;20029;-61
2022/09/01 04:02:49;;;;;;;6.97;4.30;;;;;;;16.04;58.92;101950.19;5050093;28;20104;-61
2022/09/01 04:05:17;;;;;;;9.10;4.50;;;;;;;16.02;59.36;101946.63;5045341;28;20032;-61
2022/09/01 04:07:44;;;;;;;7.75;4.47;;;;;;;16.01;59.03;101950.13;5045025;28;20028;-61
2022/09/01 04:10:10;;;;;;;6.68;4.65;;;;;;;15.98;59.12;101943.06;5050865;28;20027;-61
2022/09/01 04:12:36;;;;;;;7.53;4.28;;;;;;;15.98;59.21;101943.94;5049033;28;20120;-61
2022/09/01 04:15:02;;;;;;;6.88;4.45;;;;;;;15.98;59.51;101945.69;5048971;28;20029;-61
2022/09/01 04:20:11;;;;;;;7.35;4.47;;;;;;;15.92;59.76;101935.94;5048002;28;20128;-62
2022/09/01 04:22:37;;;;;;;6.43;4.00;;;;;;;15.91;59.85;101949.06;5050547;28;20108;-62
2022/09/01 04:25:04;;;;;;;6.75;4.43;;;;;;;15.89;59.83;101948.13;5046409;28;20031;-61
2022/09/01 04:27:29;;;;;;;5.75;4.88;;;;;;;15.88;60.21;101949.00;5047074;28;20035;-61
2022/09/01 04:29:55;;;;;;;8.20;4.65;;;;;;;15.82;60.35;101942.75;5049688;28;20111;-61
2022/09/01 04:32:21;;;;;;;6.63;4.40;;;;;;;15.80;60.51;101952.38;5048442;28;20078;-61
2022/09/01 04:34:46;;;;;;;5.50;4.18;;;;;;;15.76;60.18;101953.13;5048138;28;20029;-62
2022/09/01 04:37:16;;;;;;;6.47;4.30;;;;;;;15.73;60.47;101953.06;5041914;28;20296;-61
2022/09/01 04:39:54;;;;;;;6.07;4.30;;;;;;;15.74;59.77;101946.06;5048844;28;20025;-61
2022/09/01 04:42:22;;;;;;;6.03;4.50;;;;;;;15.73;59.99;101944.28;5044873;28;20500;-62
2022/09/01 04:44:49;;;;;;;6.57;4.55;;;;;;;15.70;59.84;101949.47;5049311;28;20036;-61
2022/09/01 04:47:18;;;;;;;5.95;4.10;;;;;;;15.66;60.40;101959.06;5047882;28;20044;-61
2022/09/01 04:49:46;;;;;;;5.90;4.30;;;;;;;15.67;59.63;101949.41;5022240;28;20467;-61
2022/09/01 04:52:11;;;;;;;8.63;5.03;;;;;;;15.65;59.65;101947.63;5049304;28;20048;-62
2022/09/01 04:54:37;;;;;;;6.03;4.28;;;;;;;15.63;59.86;101943.22;5049361;28;20053;-61
2022/09/01 04:57:05;;;;;;;6.65;4.53;;;;;;;15.60;60.21;101956.31;5046199;28;20120;-62
2022/09/01 04:59:32;;;;;;;7.82;4.30;;;;;;;15.54;60.14;101953.53;5044410;28;20043;-61
2022/09/01 05:01:59;;;;;;;6.13;4.25;;;;;;;15.51;60.41;101961.34;5044112;28;20017;-61
2022/09/01 05:04:27;;;;;;;7.68;4.97;;;;;;;15.47;60.33;101952.53;5046773;28;20040;-61
2022/09/01 05:06:59;;;;;;;7.22;4.47;;;;;;;15.44;59.88;101949.84;5043884;28;20052;-61
2022/09/01 05:09:30;;;;;;;8.55;4.55;;;;;;;15.40;60.53;101951.50;5046560;28;20728;-61
2022/09/01 05:11:56;;;;;;;7.97;4.70;;;;;;;15.39;60.46;101954.97;5026377;28;20045;-62
2022/09/01 05:14:23;;;;;;;7.55;4.35;;;;;;;15.37;60.58;101947.94;5043068;28;20120;-61
2022/09/01 05:16:49;;;;;;;6.55;4.40;;;;;;;15.35;60.24;101945.28;5046070;28;20480;-62
2022/09/01 05:19:19;;;;;;;7.70;4.88;;;;;;;15.33;60.54;101952.22;5044438;28;20032;-62
2022/09/01 05:21:46;;;;;;;8.38;4.60;;;;;;;15.31;60.94;101948.69;5040411;28;20109;-62
2022/09/01 05:24:15;;;;;;;7.40;4.68;;;;;;;15.27;60.64;101949.47;5046530;28;20027;-61
2022/09/01 05:26:43;;;;;;;8.55;4.85;;;;;;;15.27;60.93;101957.34;5046249;28;20486;-61
2022/09/01 05:29:12;;;;;;;5.50;4.43;;;;;;;15.25;60.46;101952.06;5045878;28;20024;-61
2022/09/01 05:31:40;;;;;;;7.38;4.80;;;;;;;15.21;61.00;101954.59;5049892;28;20107;-62
2022/09/01 05:34:08;;;;;;;8.82;5.30;;;;;;;15.22;60.88;101959.88;5045609;28;20021;-61
2022/09/01 05:36:35;;;;;;;5.32;4.60;;;;;;;15.20;61.05;101950.19;5043421;28;20488;-62
2022/09/01 05:39:01;;;;;;;6.70;4.80;;;;;;;15.20;60.99;101958.94;5043829;28;20033;-62
2022/09/01 05:41:27;;;;;;;7.93;4.78;;;;;;;15.18;61.07;101954.50;5045018;28;20040;-61
2022/09/01 05:43:52;;;;;;;7.72;4.70;;;;;;;15.16;61.19;101964.09;5041317;28;20060;-62
2022/09/01 05:46:22;;;;;;;6.72;5.05;;;;;;;15.17;61.25;101958.00;5046452;28;20500;-62
2022/09/01 05:48:50;;;;;;;9.07;5.25;;;;;;;15.15;61.79;101962.31;5045158;28;20392;-61
2022/09/01 05:51:18;;;;;;;8.85;4.95;;;;;;;15.10;61.67;101965.72;5042044;28;21336;-61
2022/09/01 05:53:50;;;;;;;7.13;5.03;;;;;;;15.09;61.62;101956.09;5047586;28;20062;-61
2022/09/01 05:56:18;;;;;;;8.57;5.40;;;;;;;15.10;61.67;101963.09;5041389;28;20325;-58
2022/09/01 05:58:45;;;;;;;7.55;5.30;;;;;;;15.09;61.49;101963.97;5042520;28;20060;-61
2022/09/01 06:01:21;;;;;;;7.60;5.53;;;;;;;15.09;62.00;101969.22;5046889;28;20516;-61
2022/09/01 06:03:49;;;;;;;7.85;5.57;;;;;;;15.06;61.83;101963.91;5043849;28;20029;-61
2022/09/01 06:06:15;;;;;;;8.63;5.87;;;;;;;15.07;62.15;101962.16;5049145;28;20091;-61
2022/09/01 06:08:41;;;;;;;8.35;5.47;;;;;;;15.07;62.02;101975.28;5043340;28;21542;-61
2022/09/01 06:11:11;;;;;;;8.50;6.00;;;;;;;15.02;62.28;101966.38;5046054;28;20552;-61
2022/09/01 06:13:40;;;;;;;8.40;6.00;;;;;;;15.02;62.48;101974.25;5048061;28;20025;-61
2022/09/01 06:16:10;;;;;;;8.80;6.47;;;;;;;15.00;63.04;101982.09;5048921;28;20060;-61
2022/09/01 06:18:37;;;;;;;9.55;6.65;;;;;;;15.01;63.10;101975.13;5043777;28;20022;-61
2022/09/01 06:21:07;;;;;;;9.30;6.10;;;;;;;15.03;62.73;101973.41;5042233;28;20286;-61
2022/09/01 06:23:32;;;;;;;9.98;6.13;;;;;;;15.05;62.66;101975.22;5045826;28;20086;-61
2022/09/01 06:25:58;;;;;;;9.10;5.82;;;;;;;15.07;62.35;101972.66;5048493;28;20032;-62
2022/09/01 06:28:24;;;;;;;9.27;5.90;;;;;;;15.08;63.20;101969.19;5046705;28;20485;-61
2022/09/01 06:30:50;;;;;;;11.30;5.43;;;;;;;15.09;62.29;101979.72;5041359;28;20079;-62
2022/09/01 06:33:16;;;;;;;11.13;5.45;;;;;;;15.08;63.17;101977.94;5041527;28;20636;-62
2022/09/01 06:35:43;;;;;;;9.50;5.15;;;;;;;15.08;63.46;101979.69;5045123;28;20033;-61
2022/09/01 06:38:10;;;;;;;11.88;5.57;;;;;;;15.10;63.02;101977.97;5043326;28;20037;-61
2022/09/01 06:40:39;;;;;;;12.23;5.30;;;;;;;15.11;62.94;101975.38;5043490;28;20029;-61
2022/09/01 06:43:08;;;;;;;10.23;4.95;;;;;;;15.13;62.81;101984.19;5041962;28;20471;-62
2022/09/01 06:45:39;;;;;;;8.35;5.30;;;;;;;15.16;62.07;101979.84;5047546;28;20025;-61
2022/09/01 06:48:05;;;;;;;12.80;4.95;;;;;;;15.17;62.71;101974.63;5045490;28;20032;-62
2022/09/01 06:50:30;;;;;;;13.40;5.28;;;;;;;15.20;62.72;101977.31;5045241;28;20470;-62
2022/09/01 06:53:07;;;;;;;9.75;5.63;;;;;;;15.23;62.88;101979.13;5044091;28;20087;-62
2022/09/01 06:55:36;;;;;;;8.88;4.97;;;;;;;15.27;62.82;101980.97;5042138;28;20021;-62
2022/09/01 06:58:05;;;;;;;8.50;5.43;;;;;;;15.30;62.88;101975.78;5046765;28;20500;-62
2022/09/01 07:00:30;;;;;;;7.50;5.03;;;;;;;15.33;62.39;101975.84;5039006;28;20413;-62
2022/09/01 07:02:57;;;;;;;8.68;5.80;;;;;;;15.36;62.99;101983.78;5039491;28;20021;-62
2022/09/01 07:05:23;;;;;;;11.57;5.65;;;;;;;15.40;63.08;101983.03;5036592;28;20748;-62
2022/09/01 07:07:53;;;;;;;8.65;5.45;;;;;;;15.45;62.87;101984.03;5044359;28;20025;-62
2022/09/01 07:10:26;;;;;;;9.65;5.43;;;;;;;15.51;63.33;101987.63;5040357;28;20047;-62
2022/09/01 07:12:54;;;;;;;9.93;5.60;;;;;;;15.55;62.58;101989.47;5038612;28;20045;-62
2022/09/01 07:15:20;;;;;;;10.88;5.32;;;;;;;15.59;62.87;101994.81;5043861;28;20104;-62
2022/09/01 07:17:49;;;;;;;10.98;5.32;;;;;;;15.65;63.21;101994.94;5040242;28;20528;-62
2022/09/01 07:20:15;;;;;;;9.87;5.60;;;;;;;15.72;62.58;101995.09;5033109;28;20033;-62
2022/09/01 07:22:41;;;;;;;9.02;5.45;;;;;;;15.77;62.89;101991.69;5043086;28;20025;-63
2022/09/01 07:25:06;;;;;;;8.32;5.38;;;;;;;15.82;63.06;101995.31;5042576;28;20024;-62
2022/09/01 07:27:32;;;;;;;6.93;5.30;;;;;;;15.89;62.49;101992.81;5043024;28;20029;-62
2022/09/01 07:29:57;;;;;;;10.13;5.43;;;;;;;15.95;63.26;101998.22;5035263;28;20041;-62
2022/09/01 07:32:23;;;;;;;9.25;5.45;;;;;;;16.01;62.32;101997.44;5043360;28;20067;-62
2022/09/01 07:34:48;;;;;;;8.50;5.05;;;;;;;16.08;62.26;101996.72;5046279;28;20032;-62
2022/09/01 07:37:14;;;;;;;7.53;4.82;;;;;;;16.16;63.22;102001.25;5044496;28;20025;-62
2022/09/01 07:39:44;;;;;;;9.07;5.03;;;;;;;16.22;61.73;101999.59;5041454;28;20041;-62
2022/09/01 07:42:10;;;;;;;8.80;5.55;;;;;;;16.27;61.96;101997.94;5041440;28;20041;-62
2022/09/01 07:44:37;;;;;;;9.35;5.47;;;;;;;16.32;61.22;101993.63;5049067;28;20033;-62
2022/09/01 07:47:07;;;;;;;8.57;5.10;;;;;;;16.37;61.09;101996.38;5043976;28;20033;-62
2022/09/01 07:49:32;;;;;;;8.15;4.93;;;;;;;16.42;61.66;101994.69;5052104;28;20412;-62
2022/09/01 07:51:58;;;;;;;9.43;5.72;;;;;;;16.48;61.19;102006.22;5049303;28;20021;-62
2022/09/01 07:54:24;;;;;;;8.32;5.70;;;;;;;16.55;61.94;102003.69;5047395;28;21454;-62
2022/09/01 07:56:49;;;;;;;8.45;5.30;;;;;;;16.60;61.59;102004.69;5049928;28;20025;-62
2022/09/01 07:59:14;;;;;;;8.18;5.38;;;;;;;16.65;61.52;102001.22;5038222;28;20027;-62
2022/09/01 08:01:41;;;;;;;8.65;5.43;;;;;;;16.72;61.52;101996.97;5038152;28;20029;-62
2022/09/01 08:04:06;;;;;;;9.88;5.22;;;;;;;16.77;61.91;101991.78;5042554;28;20020;-62
2022/09/01 08:06:34;;;;;;;8.77;4.88;;;;;;;16.86;61.84;101992.81;5042055;28;20407;-61
2022/09/01 08:08:59;;;;;;;7.43;5.15;;;;;;;16.97;61.07;101994.78;5023179;28;20083;-62
2022/09/01 08:11:29;;;;;;;7.20;5.10;;;;;;;17.07;61.16;101996.69;5038704;28;20029;-62
2022/09/01 08:13:59;;;;;;;7.43;5.25;;;;;;;17.20;60.69;101988.09;5045364;28;20511;-62
2022/09/01 08:16:27;;;;;;;7.38;5.57;;;;;;;17.31;60.31;101993.53;5037325;28;20043;-62
2022/09/01 08:18:52;;;;;;;7.00;4.95;;;;;;;17.40;60.72;101997.16;5047234;28;20036;-62
2022/09/01 08:21:20;;;;;;;6.93;5.30;;;;;;;17.48;60.13;101999.03;5048729;28;20392;-61
2022/09/01 08:23:46;;;;;;;8.52;5.43;;;;;;;17.58;59.95;101988.59;5039650;28;20028;-62
2022/09/01 08:26:15;;;;;;;9.45;5.10;;;;;;;17.67;60.31;101988.72;5038598;28;20037;-62
2022/09/01 08:28:41;;;;;;;7.18;4.93;;;;;;;17.74;60.72;101990.56;5039061;28;20030;-62
2022/09/01 08:31:12;;;;;;;8.75;5.20;;;;;;;17.84;59.58;102003.03;5043201;28;20108;-61
2022/09/01 08:33:40;;;;;;;7.85;5.00;;;;;;;17.97;59.65;101993.50;5038327;28;20477;-61
2022/09/01 08:36:10;;;;;;;7.72;4.57;;;;;;;18.07;60.14;101983.94;5040198;28;20049;-61
2022/09/01 08:38:35;;;;;;;8.38;4.97;;;;;;;18.23;59.25;101992.91;5040369;28;20104;-59
2022/09/01 08:41:02;;;;;;;7.07;4.80;;;;;;;18.32;58.91;101992.13;5040818;28;20562;-61
2022/09/01 08:43:41;;;;;;;6.45;4.63;;;;;;;18.44;59.12;101989.63;5040771;28;20041;-60
2022/09/01 08:46:26;;;;;;;7.90;4.82;;;;;;;18.53;58.16;101994.97;5035702;28;21191;-60
2022/09/01 08:48:59;;;;;;;7.43;4.90;;;;;;;18.66;57.89;101990.69;5032171;28;20040;-60
2022/09/01 08:51:39;;;;;;;8.52;4.63;;;;;;;18.82;58.13;101996.97;5037800;28;20029;-60
2022/09/01 08:54:25;;;;;;;8.30;4.60;;;;;;;18.94;57.04;101996.19;5041456;28;20055;-58
2022/09/01 08:56:56;;;;;;;6.35;4.50;;;;;;;19.05;57.01;101994.53;5039866;28;20021;-60
2022/09/01 08:59:22;;;;;;;7.18;4.35;;;;;;;19.21;56.25;101995.50;5041024;28;20051;-60
2022/09/01 09:01:58;;;;;;;8.63;4.72;;;;;;;19.31;56.02;101992.94;5041616;28;20028;-60
2022/09/01 09:04:30;;;;;;;8.10;4.20;;;;;;;19.41;55.82;101982.41;5042310;28;20553;-61
2022/09/01 09:07:05;;;;;;;6.43;3.95;;;;;;;19.53;55.92;101986.88;5036507;28;20043;-62
2022/09/01 09:09:43;;;;;;;6.90;4.05;;;;;;;19.69;55.80;101984.31;5043601;28;20663;-61
2022/09/01 09:12:53;;;;;;;7.57;4.40;;;;;;;19.87;55.52;101991.44;5044153;28;20033;-61
2022/09/01 09:15:32;;;;;;;5.47;4.10;;;;;;;19.98;54.67;101989.72;5029912;28;20045;-61
2022/09/01 09:18:15;;;;;;;8.30;4.22;;;;;;;20.08;53.98;101988.88;5044305;28;20064;-61
2022/09/01 09:20:42;;;;;;;6.78;3.70;;;;;;;20.17;54.00;101980.06;5045894;28;20033;-61
2022/09/01 09:23:20;;;;;;;5.65;3.80;;;;;;;20.29;54.10;101974.81;5046680;28;20187;-59
2022/09/01 09:25:45;;;;;;;5.80;4.00;;;;;;;20.39;53.10;101973.06;5049052;28;20037;-61
2022/09/01 09:28:12;;;;;;;7.40;4.13;;;;;;;20.48;52.93;101964.25;5049661;28;20026;-60
2022/09/01 09:30:37;;;;;;;5.75;3.35;;;;;;;20.55;52.93;101971.31;5050349;28;20025;-61
2022/09/01 09:33:09;;;;;;;6.85;3.80;;;;;;;20.64;52.16;101973.94;5048677;28;20077;-61
2022/09/01 09:35:40;;;;;;;6.20;3.60;;;;;;;20.77;51.87;101966.00;5044430;28;20029;-61
2022/09/01 09:38:18;;;;;;;5.53;3.80;;;;;;;20.89;51.32;101963.34;5038758;28;20041;-61
2022/09/01 09:41:05;;;;;;;8.13;3.90;;;;;;;21.00;51.35;101950.97;5050191;28;20032;-61
2022/09/01 09:43:41;;;;;;;5.45;3.30;;;;;;;21.11;51.35;101950.94;5049786;28;20052;-61
2022/09/01 09:46:41;;;;;;;6.68;3.47;;;;;;;21.24;50.82;101950.91;5048845;28;20031;-61
2022/09/01 09:49:22;;;;;;;6.35;3.40;;;;;;;21.32;50.84;101955.31;5011523;28;20127;-61
2022/09/01 09:51:50;;;;;;;6.75;3.13;;;;;;;21.47;49.06;101945.53;5049478;28;20025;-61
2022/09/01 09:54:26;;;;;;;4.00;2.83;;;;;;;21.56;50.21;101942.00;5048250;28;20116;-61
2022/09/01 09:57:10;;;;;;;5.68;2.88;;;;;;;21.67;49.02;101935.72;5043744;28;20033;-61
2022/09/01 09:59:53;;;;;;;5.55;2.33;;;;;;;21.79;49.42;101941.88;5050036;28;20025;-61
2022/09/01 10:02:34;;;;;;;4.55;2.80;;;;;;;21.89;48.84;101938.28;5028984;28;20060;-61
2022/09/01 10:05:38;;;;;;;4.43;2.45;;;;;;;22.00;47.79;101943.50;5049037;28;20029;-61
2022/09/01 10:08:07;;;;;;;4.55;2.45;;;;;;;22.12;46.68;101931.94;5042296;28;20032;-61
2022/09/01 10:10:48;;;;;;;4.68;2.30;;;;;;;22.16;46.87;101934.56;5042553;28;20025;-61
2022/09/01 10:13:19;;;;;;;5.00;2.15;;;;;;;22.21;46.26;101922.09;5048038;28;20052;-61
2022/09/01 10:15:54;;;;;;;4.45;2.10;;;;;;;22.34;44.69;101932.69;5044923;28;20025;-61
2022/09/01 10:18:22;;;;;;;3.90;2.00;;;;;;;22.43;43.28;101923.75;5041125;28;20037;-61
2022/09/01 10:20:57;;;;;;;5.22;2.28;;;;;;;22.47;43.66;101928.16;5049851;28;20025;-60
2022/09/01 10:23:23;;;;;;;4.97;2.00;;;;;;;22.62;42.59;101928.00;5049225;28;20032;-61
2022/09/01 10:25:53;;;;;;;3.75;1.88;;;;;;;22.70;41.46;101914.66;5047969;28;20111;-62
2022/09/01 10:28:22;;;;;;;4.55;2.00;;;;;;;22.82;41.92;101917.19;5039378;28;20029;-61
2022/09/01 10:30:51;;;;;;;6.28;2.58;;;;;;;22.90;41.34;101914.47;5041380;28;20021;-62
2022/09/01 10:33:18;;;;;;;5.18;2.03;;;;;;;22.92;42.83;101916.19;5042400;28;20029;-62
2022/09/01 10:35:47;;;;;;;5.03;2.25;;;;;;;22.99;41.28;101917.00;5044154;28;20039;-62
2022/09/01 10:38:19;;;;;;;5.80;2.20;;;;;;;23.08;41.20;101916.88;5045972;28;20028;-62
2022/09/01 10:41:05;;;;;;;5.95;2.10;;;;;;;23.14;41.06;101921.28;5046635;28;20029;-61
2022/09/01 10:43:48;;;;;;;3.95;1.70;;;;;;;23.17;40.98;101918.59;5044831;28;20056;-62
2022/09/01 10:46:22;;;;;;;5.00;1.92;;;;;;;23.26;41.40;101918.50;5039126;28;20092;-61
2022/09/01 10:48:50;;;;;;;7.97;2.47;;;;;;;23.33;40.30;101921.06;5049149;28;20477;-61
2022/09/01 10:51:15;;;;;;;5.03;2.07;;;;;;;23.43;39.64;101928.94;5049354;28;20044;-61
2022/09/01 10:53:45;;;;;;;3.53;1.83;;;;;;;23.52;39.47;101922.63;5039546;28;20767;-61
2022/09/01 10:56:22;;;;;;;3.33;1.95;;;;;;;23.58;38.25;101921.66;5029627;28;20300;-62
2022/09/01 10:59:08;;;;;;;3.33;1.67;;;;;;;23.66;40.03;101924.19;5040990;28;20023;-62
2022/09/01 11:01:40;;;;;;;3.50;1.95;;;;;;;23.67;38.47;101908.22;5048836;28;20037;-62
2022/09/01 11:04:28;;;;;;;3.05;1.70;;;;;;;23.77;39.19;101909.84;5043664;28;20090;-62
2022/09/01 11:06:57;;;;;;;4.63;2.05;;;;;;;23.85;37.91;101920.34;4993905;28;20289;-62
2022/09/01 11:09:43;;;;;;;4.07;2.15;;;;;;;23.89;37.73;101921.25;5044259;28;20112;-61
2022/09/01 11:12:41;;;;;;;5.93;2.05;;;;;;;23.96;38.74;101922.91;5041041;28;20056;-59
2022/09/01 11:15:12;;;;;;;3.80;1.95;;;;;;;23.98;37.17;101915.75;5043484;28;20083;-60
2022/09/01 11:17:55;;;;;;;5.38;1.77;;;;;;;24.04;38.04;101910.38;5041148;28;20094;-56
2022/09/01 11:20:26;;;;;;;4.22;2.13;;;;;;;24.05;38.08;101901.47;5040808;28;20029;-56
2022/09/01 11:22:58;;;;;;;4.10;2.10;;;;;;;24.10;38.49;101891.63;5045974;28;20041;-57
2022/09/01 11:25:39;;;;;;;4.00;1.85;;;;;;;24.18;38.49;101893.28;5042805;28;20052;-56
2022/09/01 11:28:06;;;;;;;4.32;1.98;;;;;;;24.23;38.60;101889.66;5049212;28;20515;-56
2022/09/01 11:30:40;;;;;;;4.25;1.90;;;;;;;24.27;37.38;101887.78;5050507;28;20621;-57
2022/09/01 11:33:14;;;;;;;4.50;1.90;;;;;;;24.31;37.50;101900.16;5041969;28;20029;-57
2022/09/01 11:35:42;;;;;;;4.35;2.00;;;;;;;24.31;37.09;101901.03;5039866;28;20113;-56
2022/09/01 11:38:09;;;;;;;5.30;2.03;;;;;;;24.37;36.32;101886.72;5044725;28;20125;-57
2022/09/01 11:40:35;;;;;;;4.43;2.00;;;;;;;24.43;36.61;101883.06;5043541;28;20856;-58
2022/09/01 11:43:08;;;;;;;4.50;3.10;;;;;;;24.47;36.09;101874.13;5044051;28;20174;-57
2022/09/01 11:45:49;;;;;;;36.15;22.02;;;;;;;24.54;35.58;101880.22;5040271;28;20037;-58